createdAt,value
2019-02-03T00:02:27.027Z,31.43
2019-02-03T00:04:56.642Z,34.90
2019-02-03T00:07:26.316Z,33.40
2019-02-03T00:09:56.137Z,33.80
2019-02-03T00:12:26.233Z,30.97
2019-02-03T00:14:55.894Z,33.40
2019-02-03T00:17:25.813Z,34.90
2019-02-03T00:19:55.439Z,30.20
2019-02-03T00:22:25.130Z,32.80
2019-02-03T00:24:55.053Z,33.50
2019-02-03T00:27:24.786Z,34.73
2019-02-03T00:29:54.666Z,30.23
2019-02-03T00:32:24.454Z,29.10
2019-02-03T00:34:54.119Z,32.10
2019-02-03T00:37:23.691Z,32.50
2019-02-03T00:39:53.300Z,30.83
2019-02-03T00:42:23.071Z,34.37
2019-02-03T00:44:52.686Z,29.80
2019-02-03T00:47:22.371Z,33.40
2019-02-03T00:49:52.105Z,34.47
2019-02-03T00:52:22.192Z,35.97
2019-02-03T00:54:51.840Z,32.67
2019-02-03T00:57:21.466Z,29.10
2019-02-03T00:59:51.343Z,29.70
2019-02-03T01:02:20.926Z,32.53
2019-02-03T01:04:50.739Z,32.77
2019-02-03T01:07:27.528Z,41.67
2019-02-03T01:09:51.681Z,32.90
2019-02-03T01:12:21.373Z,33.03
2019-02-03T01:14:51.179Z,31.70
2019-02-03T01:17:21.070Z,32.47
2019-02-03T01:19:50.662Z,35.47
2019-02-03T01:22:20.386Z,34.10
2019-02-03T01:24:50.022Z,30.47
2019-02-03T01:27:19.852Z,33.07
2019-02-03T01:29:49.446Z,30.93
2019-02-03T01:32:19.055Z,32.40
2019-02-03T01:34:48.714Z,32.47
2019-02-03T01:37:18.410Z,30.40
2019-02-03T01:39:48.102Z,27.90
2019-02-03T01:42:17.783Z,28.63
2019-02-03T01:44:47.969Z,31.17
2019-02-03T01:47:17.684Z,29.87
2019-02-03T01:49:47.293Z,31.53
2019-02-03T01:52:16.902Z,31.77
2019-02-03T01:54:46.542Z,32.63
2019-02-03T01:57:16.393Z,29.97
2019-02-03T01:59:46.135Z,30.30
2019-02-03T02:02:16.044Z,31.60
2019-02-03T02:04:45.762Z,32.03
2019-02-03T02:07:17.020Z,30.23
2019-02-03T02:09:46.937Z,26.20
2019-02-03T02:12:16.688Z,32.47
2019-02-03T02:14:47.997Z,26.43
2019-02-03T02:17:17.959Z,31.80
2019-02-03T02:19:48.627Z,30.73
2019-02-03T02:22:18.329Z,30.10
2019-02-03T02:24:48.126Z,30.27
2019-02-03T02:27:17.858Z,26.23
2019-02-03T02:29:47.651Z,32.80
2019-02-03T02:32:17.358Z,29.57
2019-02-03T02:34:47.172Z,28.03
2019-02-03T02:37:17.138Z,31.03
2019-02-03T02:39:46.842Z,33.27
2019-02-03T02:42:16.363Z,32.03
2019-02-03T02:44:46.006Z,35.10
2019-02-03T02:47:15.847Z,31.40
2019-02-03T02:49:45.473Z,33.43
2019-02-03T02:52:15.078Z,29.80
2019-02-03T02:54:44.802Z,30.30
2019-02-03T02:57:14.470Z,31.47
2019-02-03T02:59:44.406Z,30.60
2019-02-03T03:02:14.231Z,34.23
2019-02-03T03:04:44.023Z,30.87
2019-02-03T03:07:13.754Z,30.37
2019-02-03T03:09:43.426Z,33.70
2019-02-03T03:12:13.139Z,34.50
2019-02-03T03:14:42.816Z,36.03
2019-02-03T03:24:40.933Z,37.50
2019-02-03T03:27:10.757Z,31.60
2019-02-03T04:59:12.087Z,26.40
2019-02-03T05:07:58.272Z,28.60
2019-02-03T05:37:53.793Z,26.67
2019-02-03T05:40:42.782Z,27.97
2019-02-03T05:43:31.663Z,29.00
2019-02-03T05:46:20.530Z,25.43
2019-02-03T05:49:09.363Z,29.80
2019-02-03T05:51:58.435Z,26.20
2019-02-03T05:54:47.306Z,26.47
2019-02-03T05:57:36.248Z,27.47
2019-02-03T06:00:45.891Z,28.30
2019-02-03T06:03:34.829Z,28.37
2019-02-03T06:06:23.839Z,27.77
2019-02-03T06:12:40.391Z,28.27
2019-02-03T06:15:48.657Z,22.97
2019-02-03T06:18:37.592Z,28.27
2019-02-03T06:21:26.513Z,27.73
2019-02-03T06:24:15.523Z,26.00
2019-02-03T06:30:46.647Z,24.40
2019-02-03T06:33:35.519Z,26.43
2019-02-03T06:36:18.323Z,25.57
2019-02-03T06:39:07.458Z,27.50
2019-02-03T06:41:56.308Z,25.97
2019-02-03T06:44:45.357Z,28.77
2019-02-03T06:47:55.331Z,24.63
2019-02-03T06:50:44.218Z,29.10
2019-02-03T06:53:52.594Z,24.33
2019-02-03T06:57:02.602Z,25.70
2019-02-03T06:59:51.847Z,25.43
2019-02-03T07:02:40.759Z,25.47
2019-02-03T07:05:29.669Z,24.27
2019-02-03T07:08:18.738Z,25.60
2019-02-03T07:11:27.071Z,26.80
2019-02-03T07:14:16.250Z,26.67
2019-02-03T07:17:05.171Z,24.07
2019-02-03T07:20:34.198Z,25.37
2019-02-03T07:26:22.869Z,22.53
2019-02-03T07:29:11.844Z,25.43
2019-02-03T07:32:00.770Z,24.20
2019-02-03T07:34:49.735Z,23.70
2019-02-03T07:37:34.115Z,25.60
2019-02-03T07:40:23.125Z,25.10
2019-02-03T07:43:31.719Z,21.67
2019-02-03T07:46:20.647Z,22.77
2019-02-03T07:49:30.630Z,21.60
2019-02-03T07:55:22.167Z,23.07
2019-02-03T07:58:30.622Z,21.80
2019-02-03T08:01:19.722Z,17.33
2019-02-03T08:04:08.686Z,22.07
2019-02-03T08:06:57.630Z,20.90
2019-02-03T08:10:29.781Z,21.20
2019-02-03T08:13:38.397Z,21.13
2019-02-03T08:16:27.462Z,27.70
2019-02-03T08:19:16.314Z,22.90
2019-02-03T08:22:05.255Z,21.70
2019-02-03T08:25:07.603Z,18.63
2019-02-03T08:31:06.608Z,20.50
2019-02-03T08:33:55.618Z,24.10
2019-02-03T08:36:38.504Z,19.07
2019-02-03T08:39:27.483Z,19.37
2019-02-03T08:42:16.434Z,17.70
2019-02-03T08:45:26.028Z,18.03
2019-02-03T08:51:14.519Z,16.60
2019-02-03T08:54:03.871Z,17.43
2019-02-03T08:56:53.036Z,16.10
2019-02-03T08:59:42.503Z,15.93
2019-02-03T09:02:31.415Z,19.57
2019-02-03T09:05:39.792Z,16.03
2019-02-03T09:08:48.292Z,18.20
2019-02-03T09:11:56.551Z,16.07
2019-02-03T09:14:47.144Z,13.97
2019-02-03T09:17:57.151Z,12.47
2019-02-03T09:20:48.119Z,11.73
2019-02-03T09:23:56.170Z,11.17
2019-02-03T09:26:45.061Z,8.47
2019-02-03T09:29:33.998Z,8.63
2019-02-03T09:32:23.011Z,9.40
2019-02-03T09:38:08.415Z,8.40
2019-02-03T09:41:00.181Z,7.40
2019-02-03T09:53:04.354Z,7.67
2019-02-03T09:56:12.722Z,9.70
2019-02-03T09:59:01.634Z,9.47
2019-02-03T10:02:11.615Z,7.40
2019-02-03T10:07:48.707Z,10.63
2019-02-03T10:10:57.023Z,8.60
2019-02-03T10:13:45.871Z,18.13
2019-02-03T10:16:34.825Z,12.73
2019-02-03T10:19:23.911Z,13.23
2019-02-03T10:22:12.999Z,11.80
2019-02-03T10:25:01.860Z,10.67
2019-02-03T10:27:52.496Z,8.13
2019-02-03T10:30:41.485Z,11.13
2019-02-03T10:33:30.602Z,12.43
2019-02-03T10:36:19.581Z,17.50
2019-02-03T10:39:29.571Z,9.53
2019-02-03T10:42:18.428Z,8.67
2019-02-03T10:45:28.093Z,9.23
2019-02-03T10:48:17.195Z,5.67
2019-02-03T10:51:06.472Z,5.40
2019-02-03T10:53:55.335Z,5.40
2019-02-03T10:56:44.260Z,5.57
2019-02-03T10:59:33.283Z,5.63
2019-02-03T11:02:22.335Z,6.10
2019-02-03T11:05:30.623Z,5.17
2019-02-03T11:08:19.681Z,5.60
2019-02-03T11:11:08.678Z,5.17
2019-02-03T11:14:18.681Z,5.13
2019-02-03T15:34:27.484Z,7.80
2019-02-03T15:37:10.198Z,5.10
2019-02-03T15:39:59.311Z,4.70
2019-02-03T15:42:48.522Z,6.50
2019-02-03T15:45:58.567Z,6.03
2019-02-03T15:49:06.959Z,4.80
2019-02-03T15:51:55.895Z,6.10
2019-02-03T15:58:27.081Z,5.73
2019-02-03T16:01:16.217Z,5.23
2019-02-03T16:04:05.224Z,5.70
2019-02-03T16:06:54.240Z,6.53
2019-02-03T16:09:43.169Z,5.47
2019-02-03T16:12:32.267Z,7.20
2019-02-03T16:15:42.385Z,7.50
2019-02-03T17:33:02.880Z,10.80
2019-02-03T17:36:31.872Z,8.50
2019-02-03T17:39:33.687Z,8.70
2019-02-03T17:42:22.684Z,8.70
2019-02-03T17:45:31.027Z,9.77
2019-02-03T17:48:19.935Z,11.60
2019-02-03T17:51:23.512Z,8.90
2019-02-03T17:54:19.165Z,9.07
2019-02-03T17:57:29.301Z,9.23
2019-02-03T18:00:39.169Z,13.10
2019-02-03T18:03:28.275Z,10.17
2019-02-03T18:09:38.863Z,12.03
2019-02-03T18:12:27.802Z,10.57
2019-02-03T18:18:17.739Z,8.70
2019-02-03T18:21:06.685Z,7.20
2019-02-03T18:23:55.779Z,6.87
2019-02-03T18:27:04.207Z,7.07
2019-02-03T18:30:31.885Z,7.93
2019-02-03T18:33:20.964Z,7.23
2019-02-03T18:39:07.098Z,10.07
2019-02-03T18:41:56.207Z,9.47
2019-02-03T18:44:45.188Z,7.17
2019-02-03T18:47:35.928Z,8.83
2019-02-03T18:50:25.038Z,8.20
2019-02-03T18:53:35.184Z,10.63
2019-02-03T18:59:25.275Z,7.47
2019-02-03T19:02:14.431Z,7.17
2019-02-03T19:05:03.428Z,7.50
2019-02-03T19:07:52.656Z,9.77
2019-02-03T19:13:42.651Z,9.20
2019-02-03T19:16:31.682Z,8.03
2019-02-03T19:19:20.691Z,11.20
2019-02-03T19:22:10.048Z,10.27
2019-02-03T19:28:07.354Z,15.43
2019-02-03T19:34:46.620Z,11.33
2019-02-03T19:37:35.736Z,10.90
2019-02-03T19:40:45.411Z,11.83
2019-02-03T19:43:34.315Z,10.50
2019-02-03T19:46:23.332Z,8.13
2019-02-03T19:52:34.209Z,11.30
2019-02-03T19:55:38.110Z,13.10
2019-02-03T19:58:33.666Z,11.53
2019-02-03T20:01:22.919Z,10.00
2019-02-03T20:04:11.874Z,9.27
2019-02-03T20:07:00.972Z,8.70
2019-02-03T20:09:50.095Z,8.07
2019-02-03T20:12:39.134Z,7.80
2019-02-03T20:18:18.032Z,10.03
2019-02-03T20:21:07.391Z,7.70
2019-02-03T20:23:58.144Z,9.67
